Details From EICK - Cork
To LXGB - Gibraltar
Flight Number -
Tags Generated
Created
Modified
Stats Distance 953 nm / 1,765 km
Max Altitude 0 ft / 0 m
Waypoints 4
Social Downloads 0
Likes 0
Share VATSIM

Download

Looking for another format? Having issues loading an existing format? Contact us
Advertisement - Login to hide

Notes

Generated

Route

EICK FANET BRIKE LXGB

ID Type Via Altitude Latitude Longitude Leg Dist Tot Dist Heading (true) Name
O EICK APT - 0 ft / 0 m 51.84143˚ -8.49570˚ - 0 nm - -
FANET FIX - 0 ft / 0 m 40.38270˚ -5.64407˚ 698 nm 698 nm 169° / 171° -
BRIKE FIX - 0 ft / 0 m 36.50478˚ -5.41645˚ 233 nm 931 nm 177° / 177° -
O LXGB APT - 0 ft / 0 m 36.15080˚ -5.35977˚ 21 nm 952 nm 173° / 173° -

Altitude Profile

Advertisement - Login to hide

Weather


0- 5 10 15 20 25 30 35+ Temperature / ° C

Clouds and Precipitation
Forecast for 2017-12-14 00:00 UTC. Updated 2 hours ago

Ground ~20,000 ft ~40,000 ft Winds

EICK

Details ICAO EICK (ORK)
Name Cork
Region Ireland
Timezone Europe/Dublin (UTC+0.0)
Stats Elevation 502 ft / 153 m (AMSL)
Location 51.842605° -8.489056°
Runways 2
Magnetic Variation 3.612° W

METAR

EICK 132300Z 26013KT 9999 FEW018CB 02/01 Q0997 RE-SHRASN TEMPO 5000 -SHRASN BKN012

Decode

TAF

TAF EICK 131700Z 1318/1418 27022G33KT 9999 FEW015 BKN025 TEMPO 1318/1404 SHRAGS SCT018CB PROB30 TEMPO 1318/1409 4000 SHRASN TEMPO 1400/1418 27016G26KT TEMPO 1409/1418 -SHRAGS SCT018CB

Decode

Departure Runways

ID Width Length Bearing (true) Bearing (mag) Surface Threshold Offset Overrun Length
07 148 ft / 45 m 4,281 ft / 1,305 m 62.55° 66.16° Concrete 0 ft / 0 m 0 ft / 0 m
17 148 ft / 45 m 6,992 ft / 2,131 m 159.93° 163.54° Asphalt 0 ft / 0 m 115 ft / 35 m
25 148 ft / 45 m 4,281 ft / 1,305 m 242.57° 246.18° Concrete 0 ft / 0 m 39 ft / 12 m
35 148 ft / 45 m 6,992 ft / 2,131 m 339.94° 343.55° Asphalt 0 ft / 0 m 0 ft / 0 m

LXGB

Details ICAO LXGB (GIB)
Name Gibraltar
Region Gibralter
Timezone Europe/Gibraltar (UTC+1.0)
Stats Elevation 15 ft / 5 m (AMSL)
Location 36.151209° -5.349664°
Runways 1
Magnetic Variation 1.123° W

METAR

LXGB 132250Z AUTO 24005KT 9999 // NCD 11/09 Q1028

Decode

TAF

Not found

Destination Runways

ID Width Length Bearing (true) Bearing (mag) Surface Threshold Offset Overrun Length
27 151 ft / 46 m 5,992 ft / 1,826 m 267.56° 268.68° Asphalt 367 ft / 112 m 89 ft / 27 m
9 151 ft / 46 m 5,992 ft / 1,826 m 87.54° 88.66° Asphalt 299 ft / 91 m 52 ft / 16 m